createdAt,value
2018-05-12T00:00:06.284Z,14.67
2018-05-12T00:01:06.157Z,14.61
2018-05-12T00:02:06.147Z,14.56
2018-05-12T00:03:06.205Z,14.64
2018-05-12T00:04:06.090Z,14.61
2018-05-12T00:05:06.219Z,14.60
2018-05-12T00:06:06.049Z,14.54
2018-05-12T00:07:06.130Z,14.49
2018-05-12T00:08:06.003Z,14.52
2018-05-12T00:09:06.040Z,14.52
2018-05-12T00:10:05.961Z,14.49
2018-05-12T00:11:06.053Z,14.50
2018-05-12T00:12:05.917Z,14.46
2018-05-12T00:13:05.963Z,14.42
2018-05-12T00:14:05.873Z,14.43
2018-05-12T00:15:06.018Z,14.32
2018-05-12T00:16:05.831Z,14.28
2018-05-12T00:17:05.888Z,14.24
2018-05-12T00:18:05.787Z,14.27
2018-05-12T00:19:05.904Z,14.24
2018-05-12T00:20:05.739Z,14.31
2018-05-12T00:21:05.818Z,14.24
2018-05-12T00:22:05.701Z,14.17
2018-05-12T00:23:05.830Z,14.17
2018-05-12T00:24:05.652Z,14.17
2018-05-12T00:25:05.742Z,14.17
2018-05-12T00:26:05.609Z,14.16
2018-05-12T00:27:05.757Z,14.17
2018-05-12T00:28:05.564Z,14.12
2018-05-12T00:29:05.668Z,14.14
2018-05-12T00:30:05.519Z,14.14
2018-05-12T00:31:05.579Z,14.10
2018-05-12T00:32:05.476Z,14.04
2018-05-12T00:33:05.590Z,13.96
2018-05-12T00:34:05.441Z,14.01
2018-05-12T00:35:05.504Z,13.99
2018-05-12T00:36:05.390Z,13.95
2018-05-12T00:37:05.518Z,13.96
2018-05-12T00:38:05.350Z,13.96
2018-05-12T00:39:05.433Z,13.96
2018-05-12T00:40:05.303Z,13.94
2018-05-12T00:41:05.446Z,13.99
2018-05-12T00:42:05.252Z,13.95
2018-05-12T00:43:05.438Z,13.92
2018-05-12T00:44:05.214Z,13.89
2018-05-12T00:45:05.374Z,13.88
2018-05-12T00:46:05.174Z,13.84
2018-05-12T00:47:05.283Z,13.80
2018-05-12T00:48:05.126Z,13.80
2018-05-12T00:49:05.195Z,13.80
2018-05-12T00:50:05.084Z,13.71
2018-05-12T00:51:05.208Z,13.76
2018-05-12T00:52:05.041Z,13.81
2018-05-12T00:53:05.119Z,13.67
2018-05-12T00:54:04.992Z,13.63
2018-05-12T00:55:05.129Z,13.56
2018-05-12T00:56:04.946Z,13.55
2018-05-12T00:57:05.047Z,13.55
2018-05-12T00:58:04.905Z,13.47
2018-05-12T00:59:05.059Z,13.58
2018-05-12T01:00:04.863Z,13.55
2018-05-12T01:01:04.969Z,13.56
2018-05-12T01:02:04.813Z,13.47
2018-05-12T01:03:04.985Z,13.40
2018-05-12T01:04:04.771Z,13.41
2018-05-12T01:05:04.898Z,13.38
2018-05-12T01:06:04.726Z,13.41
2018-05-12T01:07:04.809Z,13.38
2018-05-12T01:08:04.680Z,13.30
2018-05-12T01:09:04.826Z,13.30
2018-05-12T01:10:04.637Z,13.36
2018-05-12T01:11:11.836Z,13.29
2018-05-12T01:12:57.614Z,13.33
2018-05-12T01:13:57.528Z,13.25
2018-05-12T01:15:50.471Z,13.29
2018-05-12T01:16:50.377Z,13.22
2018-05-12T01:18:43.350Z,13.18
2018-05-12T01:19:43.228Z,13.11
2018-05-12T01:21:36.171Z,13.11
2018-05-12T01:22:36.077Z,13.06
2018-05-12T01:24:29.021Z,13.07
2018-05-12T01:25:28.928Z,13.02
2018-05-12T01:27:21.872Z,13.00
2018-05-12T01:28:21.780Z,12.99
2018-05-12T01:30:14.729Z,12.96
2018-05-12T01:31:14.645Z,12.95
2018-05-12T01:33:07.570Z,12.96
2018-05-12T01:34:07.483Z,12.97
2018-05-12T01:36:00.421Z,13.03
2018-05-12T01:37:00.334Z,12.99
2018-05-12T01:38:53.524Z,12.85
2018-05-12T01:39:53.241Z,12.92
2018-05-12T01:41:46.387Z,12.93
2018-05-12T01:42:46.187Z,12.87
2018-05-12T01:44:39.355Z,12.84
2018-05-12T01:45:39.143Z,12.85
2018-05-12T01:47:32.301Z,12.81
2018-05-12T01:48:32.097Z,12.77
2018-05-12T01:50:25.258Z,12.75
2018-05-12T01:51:25.057Z,12.67
2018-05-12T01:53:18.069Z,12.71
2018-05-12T01:54:18.083Z,12.59
2018-05-12T01:56:11.170Z,12.74
2018-05-12T01:57:11.141Z,12.75
2018-05-12T01:59:04.122Z,12.69
2018-05-12T02:00:03.922Z,12.64
2018-05-12T02:01:57.003Z,12.66
2018-05-12T02:02:56.881Z,12.67
2018-05-12T02:04:50.031Z,12.62
2018-05-12T02:05:49.835Z,12.63
2018-05-12T02:07:43.004Z,12.62
2018-05-12T02:08:42.789Z,12.62
2018-05-12T02:10:35.738Z,12.60
2018-05-12T02:11:35.643Z,12.54
2018-05-12T02:13:28.795Z,12.52
2018-05-12T02:14:28.597Z,12.52
2018-05-12T02:16:21.759Z,12.52
2018-05-12T02:17:21.560Z,12.46
2018-05-12T02:19:14.704Z,12.48
2018-05-12T02:20:14.508Z,12.39
2018-05-12T02:22:07.660Z,12.31
2018-05-12T02:23:07.462Z,12.33
2018-05-12T02:25:00.617Z,12.30
2018-05-12T02:26:00.417Z,12.29
2018-05-12T02:27:53.571Z,12.42
2018-05-12T02:28:53.372Z,12.38
2018-05-12T02:30:46.531Z,12.33
2018-05-12T02:31:46.327Z,12.30
2018-05-12T02:33:39.480Z,12.30
2018-05-12T02:34:39.284Z,12.21
2018-05-12T02:36:32.438Z,12.19
2018-05-12T02:37:32.237Z,12.30
2018-05-12T02:39:25.438Z,12.30
2018-05-12T02:40:25.194Z,12.16
2018-05-12T02:42:18.353Z,12.23
2018-05-12T02:43:18.152Z,12.20
2018-05-12T02:45:11.213Z,12.19
2018-05-12T02:46:11.104Z,12.15
2018-05-12T02:48:04.156Z,12.15
2018-05-12T02:49:04.061Z,12.20
2018-05-12T02:50:57.134Z,12.05
2018-05-12T02:51:57.020Z,12.11
2018-05-12T02:53:49.969Z,12.06
2018-05-12T02:54:49.873Z,12.05
2018-05-12T02:56:42.822Z,12.02
2018-05-12T02:57:42.731Z,12.08
2018-05-12T02:59:35.673Z,12.05
2018-05-12T03:00:35.668Z,12.02
2018-05-12T03:02:28.527Z,12.05
2018-05-12T03:03:28.431Z,12.06
2018-05-12T03:05:21.380Z,12.08
2018-05-12T03:06:21.288Z,12.01
2018-05-12T03:08:14.334Z,11.96
2018-05-12T03:09:14.238Z,11.97
2018-05-12T03:11:07.293Z,11.94
2018-05-12T03:12:07.199Z,11.94
2018-05-12T03:14:00.147Z,11.80
2018-05-12T03:15:00.051Z,11.89
2018-05-12T03:16:53.098Z,11.89
2018-05-12T03:17:53.005Z,11.83
2018-05-12T03:19:46.055Z,11.78
2018-05-12T03:20:45.960Z,11.85
2018-05-12T03:22:39.009Z,11.72
2018-05-12T03:23:38.913Z,11.80
2018-05-12T03:25:31.964Z,11.77
2018-05-12T03:26:31.868Z,11.75
2018-05-12T03:28:24.922Z,11.74
2018-05-12T03:29:24.835Z,11.74
2018-05-12T03:31:17.871Z,11.82
2018-05-12T03:32:17.781Z,11.68
2018-05-12T03:34:10.830Z,11.75
2018-05-12T03:35:10.731Z,11.75
2018-05-12T03:37:03.888Z,11.72
2018-05-12T03:38:03.687Z,11.74
2018-05-12T03:39:56.851Z,11.68
2018-05-12T03:40:56.642Z,11.75
2018-05-12T03:42:49.704Z,11.67
2018-05-12T03:43:49.599Z,11.75
2018-05-12T03:45:42.762Z,11.72
2018-05-12T03:46:42.556Z,11.78
2018-05-12T03:48:35.711Z,11.77
2018-05-12T03:49:42.725Z,11.67
2018-05-12T03:51:28.500Z,11.68
2018-05-12T03:52:28.405Z,11.64
2018-05-12T03:54:21.352Z,11.64
2018-05-12T03:55:21.262Z,11.70
2018-05-12T03:57:14.203Z,11.67
2018-05-12T03:58:14.114Z,11.65
2018-05-12T04:00:07.082Z,11.67
2018-05-12T04:01:06.988Z,11.65
2018-05-12T04:02:59.949Z,11.54
2018-05-12T04:03:59.837Z,11.62
2018-05-12T04:05:52.889Z,11.54
2018-05-12T04:06:52.790Z,11.56
2018-05-12T04:08:45.849Z,11.65
2018-05-12T04:09:45.748Z,11.59
2018-05-12T04:11:38.798Z,11.68
2018-05-12T04:12:38.705Z,11.64
2018-05-12T04:14:31.756Z,11.56
2018-05-12T04:15:31.647Z,11.54
2018-05-12T04:17:24.711Z,11.61
2018-05-12T04:18:24.620Z,11.52
2018-05-12T04:20:17.665Z,11.67
2018-05-12T04:21:17.569Z,11.68
2018-05-12T04:23:10.627Z,11.70
2018-05-12T04:24:10.525Z,11.67
2018-05-12T04:26:03.577Z,11.75
2018-05-12T04:27:03.481Z,11.75
2018-05-12T04:28:56.636Z,11.77
2018-05-12T04:29:56.433Z,11.75
2018-05-12T04:31:49.488Z,11.75
2018-05-12T04:32:49.389Z,11.77
2018-05-12T04:34:42.546Z,11.77
2018-05-12T04:35:42.345Z,11.75
2018-05-12T04:37:35.500Z,11.86
2018-05-12T04:38:35.299Z,11.89
2018-05-12T04:40:28.457Z,11.94
2018-05-12T04:41:28.256Z,11.85
2018-05-12T04:43:21.504Z,11.97
2018-05-12T04:44:21.212Z,11.97
2018-05-12T04:46:14.165Z,11.97
2018-05-12T04:47:14.079Z,12.09
2018-05-12T04:49:07.024Z,12.06
2018-05-12T04:50:06.929Z,12.16
2018-05-12T04:51:59.873Z,12.23
2018-05-12T04:52:59.774Z,12.19
2018-05-12T04:54:52.723Z,12.30
2018-05-12T04:55:52.627Z,12.31
2018-05-12T04:57:45.578Z,12.26
2018-05-12T04:58:45.480Z,12.34
2018-05-12T05:00:38.431Z,12.39
2018-05-12T05:01:38.333Z,12.45
2018-05-12T05:03:31.285Z,12.44
2018-05-12T05:04:31.186Z,12.46
2018-05-12T05:06:24.139Z,12.59
2018-05-12T05:07:24.042Z,12.62
2018-05-12T05:09:16.996Z,12.69
2018-05-12T05:10:16.897Z,12.70
2018-05-12T05:12:09.843Z,12.67
2018-05-12T05:13:09.749Z,12.69
2018-05-12T05:15:03.209Z,12.75
2018-05-12T05:16:03.117Z,12.78
2018-05-12T05:17:56.065Z,12.89
2018-05-12T05:18:55.968Z,13.00
2018-05-12T05:20:48.919Z,12.97
2018-05-12T05:21:48.818Z,12.96
2018-05-12T05:23:41.768Z,13.11
2018-05-12T05:24:41.675Z,13.11
2018-05-12T05:26:34.629Z,13.20
2018-05-12T05:27:34.535Z,13.27
2018-05-12T05:29:27.479Z,13.38
2018-05-12T05:30:27.377Z,13.43
2018-05-12T05:32:20.331Z,13.56
2018-05-12T05:33:20.233Z,13.49
2018-05-12T05:35:13.243Z,13.69
2018-05-12T05:36:13.086Z,13.63
2018-05-12T05:38:06.033Z,13.69
2018-05-12T05:39:05.936Z,13.77
2018-05-12T05:40:58.916Z,13.89
2018-05-12T05:41:58.788Z,13.91
2018-05-12T05:43:51.737Z,13.96
2018-05-12T05:44:51.643Z,14.01
2018-05-12T05:46:44.592Z,14.14
2018-05-12T05:47:44.496Z,14.17
2018-05-12T05:49:37.443Z,14.14
2018-05-12T05:50:37.356Z,14.27
2018-05-12T05:52:30.296Z,14.25
2018-05-12T05:53:30.204Z,14.35
2018-05-12T05:55:23.148Z,14.39
2018-05-12T05:56:23.058Z,14.47
2018-05-12T05:58:15.996Z,14.64
2018-05-12T05:59:15.908Z,14.52
2018-05-12T06:01:08.857Z,14.67
2018-05-12T06:02:08.760Z,14.68
2018-05-12T06:04:01.647Z,14.84
2018-05-12T06:05:01.692Z,14.90
2018-05-12T06:06:54.658Z,14.93
2018-05-12T06:07:54.471Z,14.91
2018-05-12T06:09:47.425Z,14.98
2018-05-12T06:10:47.329Z,15.13
2018-05-12T06:12:40.267Z,15.26
2018-05-12T06:13:40.176Z,15.31
2018-05-12T06:15:33.122Z,15.38
2018-05-12T06:16:33.030Z,15.42
2018-05-12T06:18:25.975Z,15.56
2018-05-12T06:19:26.043Z,15.48
2018-05-12T06:21:18.931Z,15.74
2018-05-12T06:22:18.837Z,15.78
2018-05-12T06:24:11.821Z,15.86
2018-05-12T06:25:11.791Z,15.92
2018-05-12T06:27:04.838Z,16.01
2018-05-12T06:28:04.746Z,16.03
2018-05-12T06:30:03.279Z,16.15
2018-05-12T06:30:57.663Z,16.18
2018-05-12T06:32:50.600Z,16.30
2018-05-12T06:33:50.515Z,16.30
2018-05-12T06:35:44.985Z,16.38
2018-05-12T06:36:44.900Z,16.44
2018-05-12T06:38:37.840Z,16.63
2018-05-12T06:39:37.760Z,16.67
2018-05-12T06:41:30.687Z,16.86
2018-05-12T06:42:30.604Z,16.81
2018-05-12T06:44:23.724Z,16.92
2018-05-12T06:45:23.706Z,17.00
2018-05-12T06:47:16.518Z,17.06
2018-05-12T06:48:16.482Z,17.17
2018-05-12T06:50:09.635Z,17.23
2018-05-12T06:51:09.617Z,17.30
2018-05-12T06:53:02.590Z,17.33
2018-05-12T06:54:02.392Z,17.43
2018-05-12T06:55:55.545Z,17.51
2018-05-12T06:56:55.351Z,17.57
2018-05-12T06:58:48.505Z,17.57
2018-05-12T06:59:48.305Z,17.57
2018-05-12T07:01:41.459Z,17.66
2018-05-12T07:02:41.262Z,17.66
2018-05-12T07:04:34.417Z,17.76
2018-05-12T07:05:34.287Z,17.76
2018-05-12T07:07:27.371Z,17.82
2018-05-12T07:08:27.178Z,17.85
2018-05-12T07:10:20.332Z,17.87
2018-05-12T07:11:20.125Z,17.95
2018-05-12T07:13:13.284Z,17.94
2018-05-12T07:14:13.086Z,17.91
2018-05-12T07:16:06.239Z,17.99
2018-05-12T07:17:06.041Z,18.06
2018-05-12T07:18:59.091Z,18.12
2018-05-12T07:19:58.995Z,18.18
2018-05-12T07:20:59.076Z,18.06
2018-05-12T07:21:58.954Z,18.25
2018-05-12T07:22:58.992Z,18.24
2018-05-12T07:23:58.919Z,18.28
2018-05-12T07:24:59.001Z,18.36
2018-05-12T07:25:58.871Z,18.31
2018-05-12T07:26:58.914Z,18.37
2018-05-12T07:27:58.828Z,18.49
2018-05-12T07:28:58.932Z,18.37
2018-05-12T07:29:58.790Z,18.43
2018-05-12T07:30:58.839Z,18.52
2018-05-12T07:31:58.748Z,18.46
2018-05-12T07:32:58.854Z,18.44
2018-05-12T07:33:58.709Z,18.44
2018-05-12T07:34:58.765Z,18.52
2018-05-12T07:35:58.668Z,18.57
2018-05-12T07:36:58.779Z,18.57
2018-05-12T07:37:58.628Z,18.67
2018-05-12T07:38:58.709Z,18.64
2018-05-12T07:39:58.589Z,18.73
2018-05-12T07:40:58.708Z,18.67
2018-05-12T07:41:58.545Z,18.79
2018-05-12T07:42:58.619Z,18.79
2018-05-12T07:43:58.508Z,18.80
2018-05-12T07:44:58.532Z,18.91
2018-05-12T07:45:58.465Z,19.01
2018-05-12T07:46:58.567Z,18.99
2018-05-12T07:47:58.424Z,19.10
2018-05-12T07:48:58.456Z,19.11
2018-05-12T07:49:58.395Z,19.14
2018-05-12T07:50:58.468Z,19.17
2018-05-12T07:51:58.344Z,19.24
2018-05-12T07:52:58.382Z,19.25
2018-05-12T07:53:58.306Z,19.32
2018-05-12T07:54:58.396Z,19.31
2018-05-12T07:55:58.269Z,19.29
2018-05-12T07:56:58.393Z,19.36
2018-05-12T07:57:58.226Z,19.35
2018-05-12T07:58:58.210Z,19.43
2018-05-12T07:59:58.186Z,19.50
2018-05-12T08:00:58.232Z,19.61
2018-05-12T08:01:58.151Z,19.60
2018-05-12T08:02:58.247Z,19.53
2018-05-12T08:03:58.109Z,19.55
2018-05-12T08:04:58.156Z,19.66
2018-05-12T08:05:58.069Z,19.76
2018-05-12T08:06:58.171Z,19.76
2018-05-12T08:07:58.037Z,19.83
2018-05-12T08:08:58.082Z,19.86
2018-05-12T08:09:57.991Z,19.83
2018-05-12T08:10:58.095Z,19.88
2018-05-12T08:11:57.959Z,19.88
2018-05-12T08:12:58.009Z,20.03
2018-05-12T08:13:57.913Z,20.03
2018-05-12T08:14:58.026Z,20.05
2018-05-12T08:15:57.875Z,20.03
2018-05-12T08:16:57.946Z,20.09
2018-05-12T08:17:57.840Z,20.20
2018-05-12T08:18:57.946Z,20.23
2018-05-12T08:19:57.801Z,20.27
2018-05-12T08:20:57.864Z,20.34
2018-05-12T08:21:57.760Z,20.39
2018-05-12T08:22:57.881Z,20.47
2018-05-12T08:23:57.737Z,20.49
2018-05-12T08:24:57.786Z,20.53
2018-05-12T08:25:57.743Z,20.54
2018-05-12T08:26:57.862Z,20.59
2018-05-12T08:27:57.648Z,20.62
2018-05-12T08:28:57.816Z,20.65
2018-05-12T08:29:57.609Z,20.64
2018-05-12T08:30:57.726Z,20.81
2018-05-12T08:31:57.572Z,20.87
2018-05-12T08:32:57.651Z,20.91
2018-05-12T08:33:57.532Z,21.06
2018-05-12T08:34:57.652Z,21.08
2018-05-12T08:35:57.498Z,21.20
2018-05-12T08:36:57.563Z,21.27
2018-05-12T08:37:57.458Z,21.38
2018-05-12T08:38:57.577Z,21.44
2018-05-12T08:39:57.422Z,21.53
2018-05-12T08:40:57.430Z,21.67
2018-05-12T08:41:57.380Z,21.76
2018-05-12T08:42:57.403Z,21.82
2018-05-12T08:43:57.351Z,21.91
2018-05-12T08:44:57.517Z,21.81
2018-05-12T08:45:57.316Z,21.92
2018-05-12T08:46:57.431Z,22.13
2018-05-12T08:47:57.275Z,22.17
2018-05-12T08:48:57.443Z,22.27
2018-05-12T08:49:57.237Z,22.41
2018-05-12T08:50:57.271Z,22.53
2018-05-12T08:51:57.205Z,22.57
2018-05-12T08:52:57.287Z,22.75
2018-05-12T08:53:57.164Z,22.89
2018-05-12T08:54:57.194Z,22.87
2018-05-12T08:55:57.131Z,22.94
2018-05-12T08:56:57.136Z,23.07
2018-05-12T08:57:57.111Z,23.07
2018-05-12T08:58:57.078Z,23.02
2018-05-12T08:59:57.193Z,23.14
2018-05-12T09:00:57.044Z,23.40
2018-05-12T09:01:57.137Z,23.35
2018-05-12T09:02:57.011Z,23.52
2018-05-12T09:03:57.047Z,23.61
2018-05-12T09:04:57.007Z,23.72
2018-05-12T09:05:57.984Z,23.72
2018-05-12T09:06:56.937Z,23.82
2018-05-12T09:07:56.968Z,23.98
2018-05-12T09:08:56.904Z,24.04
2018-05-12T09:09:56.983Z,24.08
2018-05-12T09:10:56.869Z,24.13
2018-05-12T09:11:56.891Z,24.27
2018-05-12T09:12:56.929Z,24.31
2018-05-12T09:13:56.907Z,24.38
2018-05-12T09:14:56.898Z,24.45
2018-05-12T09:15:56.820Z,24.60
2018-05-12T09:16:56.756Z,24.59
2018-05-12T09:17:56.831Z,24.69
2018-05-12T09:18:56.735Z,24.82
2018-05-12T09:19:56.716Z,24.97
2018-05-12T09:20:56.702Z,25.12
2018-05-12T09:21:56.749Z,25.12
2018-05-12T09:22:56.665Z,25.28
2018-05-12T09:23:56.760Z,25.20
2018-05-12T09:24:56.634Z,25.24
2018-05-12T09:25:56.675Z,25.28
2018-05-12T09:26:56.590Z,25.53
2018-05-12T09:27:56.684Z,25.72
2018-05-12T09:28:56.569Z,25.91
2018-05-12T09:29:56.595Z,25.84
2018-05-12T09:30:56.534Z,25.82
2018-05-12T09:31:56.606Z,25.87
2018-05-12T09:32:56.507Z,25.98
2018-05-12T09:33:56.517Z,26.02
2018-05-12T09:34:56.471Z,26.02
2018-05-12T09:35:56.529Z,25.87
2018-05-12T09:36:56.440Z,25.90
2018-05-12T09:37:56.441Z,26.06
2018-05-12T09:38:56.406Z,26.27
2018-05-12T09:39:56.451Z,26.31
2018-05-12T09:40:56.375Z,26.25
2018-05-12T09:41:56.464Z,26.25
2018-05-12T09:42:56.344Z,26.36
2018-05-12T09:43:56.374Z,26.52
2018-05-12T09:44:56.359Z,26.74
2018-05-12T09:45:56.388Z,26.96
2018-05-12T09:46:56.284Z,27.16
2018-05-12T09:47:56.297Z,27.17
2018-05-12T09:48:56.251Z,27.35
2018-05-12T09:49:56.309Z,27.39
2018-05-12T09:50:56.220Z,27.38
2018-05-12T09:51:56.321Z,27.36
2018-05-12T09:52:56.193Z,27.19
2018-05-12T09:53:56.234Z,27.36
2018-05-12T09:54:56.164Z,27.38
2018-05-12T09:55:57.167Z,27.57
2018-05-12T09:56:56.130Z,27.71
2018-05-12T09:57:57.181Z,27.69
2018-05-12T09:58:56.102Z,27.67
2018-05-12T09:59:56.166Z,27.66
2018-05-12T10:00:56.076Z,27.77
2018-05-12T10:01:56.077Z,27.80
2018-05-12T10:02:56.045Z,27.85
2018-05-12T10:03:56.089Z,28.14
2018-05-12T10:04:56.016Z,28.14
2018-05-12T10:05:56.101Z,28.29
2018-05-12T10:06:55.987Z,28.26
2018-05-12T10:07:56.012Z,28.41
2018-05-12T10:08:55.958Z,28.41
2018-05-12T10:09:56.026Z,28.54
2018-05-12T10:10:55.931Z,28.62
2018-05-12T10:11:55.936Z,28.43
2018-05-12T10:12:56.075Z,28.66
2018-05-12T10:13:55.946Z,28.82
2018-05-12T10:14:55.875Z,29.07
2018-05-12T10:15:55.965Z,29.18
2018-05-12T10:16:55.848Z,29.16
2018-05-12T10:17:55.871Z,29.07
2018-05-12T10:18:55.820Z,28.85
2018-05-12T10:19:55.890Z,28.82
2018-05-12T10:20:55.800Z,28.80
2018-05-12T10:21:55.794Z,28.88
2018-05-12T10:22:55.768Z,28.78
2018-05-12T10:23:55.808Z,28.77
2018-05-12T10:24:55.739Z,28.68
2018-05-12T10:25:55.823Z,28.43
2018-05-12T10:26:55.712Z,28.17
2018-05-12T10:27:55.732Z,27.94
2018-05-12T10:28:55.694Z,27.89
2018-05-12T10:29:55.744Z,28.03
2018-05-12T10:30:55.662Z,28.17
2018-05-12T10:31:55.758Z,28.29
2018-05-12T10:32:55.637Z,28.43
2018-05-12T10:33:55.667Z,28.58
2018-05-12T10:34:55.610Z,28.54
2018-05-12T10:35:55.680Z,28.44
2018-05-12T10:36:55.593Z,27.98
2018-05-12T10:37:55.586Z,27.99
2018-05-12T10:38:55.607Z,28.21
2018-05-12T10:39:55.605Z,28.50
2018-05-12T10:40:55.535Z,28.62
2018-05-12T10:41:55.609Z,28.77
2018-05-12T10:42:55.510Z,29.00
2018-05-12T10:43:55.519Z,28.77
2018-05-12T10:44:55.580Z,28.91
2018-05-12T10:45:55.533Z,29.06
2018-05-12T10:46:55.461Z,29.28
2018-05-12T10:47:55.546Z,29.29
2018-05-12T10:48:55.434Z,29.38
2018-05-12T10:49:55.456Z,29.49
2018-05-12T10:50:55.420Z,29.37
2018-05-12T10:51:55.468Z,29.37
2018-05-12T10:52:55.383Z,29.15
2018-05-12T10:53:55.480Z,28.72
2018-05-12T10:54:55.359Z,28.66
2018-05-12T10:55:55.390Z,28.69
2018-05-12T10:56:55.350Z,28.65
2018-05-12T10:57:55.403Z,28.60
2018-05-12T10:58:55.310Z,28.21
2018-05-12T10:59:56.338Z,27.98
2018-05-12T11:00:55.287Z,28.04
2018-05-12T11:01:55.329Z,28.26
2018-05-12T11:02:55.258Z,28.32
2018-05-12T11:03:55.343Z,28.22
2018-05-12T11:04:55.240Z,28.26
2018-05-12T11:05:55.249Z,28.32
2018-05-12T11:06:55.225Z,28.46
2018-05-12T11:07:55.265Z,28.47
2018-05-12T11:08:55.189Z,28.56
2018-05-12T11:09:55.273Z,28.54
2018-05-12T11:10:55.164Z,28.65
2018-05-12T11:11:55.185Z,28.70
2018-05-12T11:12:55.140Z,28.91
2018-05-12T11:13:55.195Z,29.07
2018-05-12T11:14:55.117Z,29.16
2018-05-12T11:15:55.245Z,29.29
2018-05-12T11:16:55.091Z,29.31
2018-05-12T11:17:55.127Z,29.35
2018-05-12T11:18:55.069Z,29.15
2018-05-12T11:19:55.132Z,29.15
2018-05-12T11:20:55.050Z,29.19
2018-05-12T11:21:55.273Z,29.16
2018-05-12T11:22:55.026Z,29.31
2018-05-12T11:23:55.055Z,29.29
2018-05-12T11:24:54.996Z,29.34
2018-05-12T11:25:55.069Z,29.40
2018-05-12T11:26:54.975Z,29.44
2018-05-12T11:27:54.982Z,29.44
2018-05-12T11:28:54.953Z,29.38
2018-05-12T11:29:54.937Z,29.35
2018-05-12T11:30:54.992Z,29.29
2018-05-12T11:31:54.918Z,29.41
2018-05-12T11:32:55.017Z,29.47
2018-05-12T11:33:54.896Z,29.55
2018-05-12T11:34:54.880Z,29.44
2018-05-12T11:35:54.878Z,29.37
2018-05-12T11:36:54.943Z,29.41
2018-05-12T11:37:54.845Z,29.47
2018-05-12T11:38:54.961Z,29.65
2018-05-12T11:39:54.838Z,29.63
2018-05-12T11:40:54.877Z,29.49
2018-05-12T11:41:54.802Z,29.41
2018-05-12T11:42:54.882Z,29.29
2018-05-12T11:43:54.779Z,29.35
2018-05-12T11:44:54.895Z,29.34
2018-05-12T11:45:54.761Z,29.45
2018-05-12T11:46:54.809Z,29.53
2018-05-12T11:47:54.740Z,29.65
2018-05-12T11:48:54.824Z,29.71
2018-05-12T11:49:54.714Z,29.50
2018-05-12T11:50:54.836Z,29.38
2018-05-12T11:51:54.690Z,29.31
2018-05-12T11:52:54.747Z,29.08
2018-05-12T11:53:54.678Z,29.11
2018-05-12T11:54:59.685Z,29.06
2018-05-12T11:55:54.642Z,29.11
2018-05-12T11:56:54.794Z,29.19
2018-05-12T11:57:54.623Z,29.20
2018-05-12T11:58:54.700Z,29.08
2018-05-12T11:59:54.602Z,28.95
2018-05-12T12:00:54.715Z,29.01
2018-05-12T12:01:54.577Z,28.85
2018-05-12T12:02:54.629Z,29.00
2018-05-12T12:03:54.564Z,29.08
2018-05-12T12:04:54.641Z,29.03
2018-05-12T12:05:54.537Z,28.93
2018-05-12T12:06:54.654Z,28.97
2018-05-12T12:07:54.514Z,28.87
2018-05-12T12:08:54.565Z,29.08
2018-05-12T12:09:54.490Z,29.11
2018-05-12T12:10:54.572Z,29.18
2018-05-12T12:11:54.467Z,29.31
2018-05-12T12:12:54.491Z,29.38
2018-05-12T12:13:54.444Z,29.43
2018-05-12T12:14:54.516Z,29.38
2018-05-12T12:15:54.421Z,29.31
2018-05-12T12:16:54.534Z,29.34
2018-05-12T12:17:54.396Z,29.31
2018-05-12T12:18:54.544Z,29.35
2018-05-12T12:19:54.377Z,29.34
2018-05-12T12:20:54.385Z,29.25
2018-05-12T12:21:54.360Z,29.34
2018-05-12T12:22:54.462Z,29.28
2018-05-12T12:23:54.331Z,29.34
2018-05-12T12:24:54.474Z,29.31
2018-05-12T12:25:54.308Z,29.35
2018-05-12T12:26:54.386Z,29.33
2018-05-12T12:27:54.289Z,29.34
2018-05-12T12:28:54.399Z,29.41
2018-05-12T12:29:54.266Z,29.50
2018-05-12T12:30:54.413Z,29.50
2018-05-12T12:31:54.246Z,29.29
2018-05-12T12:32:54.324Z,29.31
2018-05-12T12:33:54.221Z,29.47
2018-05-12T12:34:54.342Z,29.31
2018-05-12T12:35:54.200Z,29.33
2018-05-12T12:36:54.358Z,29.23
2018-05-12T12:37:54.180Z,29.34
2018-05-12T12:38:54.270Z,29.40
2018-05-12T12:39:54.160Z,29.35
2018-05-12T12:40:54.282Z,29.34
2018-05-12T12:41:54.134Z,29.53
2018-05-12T12:42:54.299Z,29.78
2018-05-12T12:43:54.115Z,29.82
2018-05-12T12:44:54.208Z,29.84
2018-05-12T12:45:54.091Z,29.86
2018-05-12T12:46:54.230Z,29.96
2018-05-12T12:47:54.079Z,29.92
2018-05-12T12:48:54.235Z,29.92
2018-05-12T12:49:54.056Z,30.02
2018-05-12T12:50:54.150Z,30.26
2018-05-12T12:51:54.027Z,30.30
2018-05-12T12:52:54.163Z,30.43
2018-05-12T12:53:54.007Z,30.52
2018-05-12T12:54:54.180Z,30.38
2018-05-12T12:55:53.986Z,30.37
2018-05-12T12:56:54.091Z,30.38
2018-05-12T12:57:53.957Z,30.45
2018-05-12T12:58:54.106Z,30.50
2018-05-12T12:59:53.941Z,30.57
2018-05-12T13:00:54.117Z,30.75
2018-05-12T13:01:53.918Z,30.67
2018-05-12T13:02:54.029Z,30.81
2018-05-12T13:03:53.898Z,30.46
2018-05-12T13:04:54.135Z,30.47
2018-05-12T13:05:53.884Z,30.54
2018-05-12T13:06:54.057Z,30.64
2018-05-12T13:07:53.857Z,30.69
2018-05-12T13:08:54.991Z,30.94
2018-05-12T13:09:53.833Z,31.08
2018-05-12T13:10:53.994Z,31.05
2018-05-12T13:11:53.817Z,31.13
2018-05-12T13:12:53.996Z,31.21
2018-05-12T13:13:53.869Z,31.06
2018-05-12T13:14:53.905Z,30.98
2018-05-12T13:15:53.819Z,30.78
2018-05-12T13:16:53.919Z,30.80
2018-05-12T13:17:53.766Z,30.53
2018-05-12T13:18:53.837Z,30.52
2018-05-12T13:19:53.739Z,30.56
2018-05-12T13:20:53.748Z,30.43
2018-05-12T13:21:53.719Z,30.27
2018-05-12T13:22:53.759Z,30.12
2018-05-12T13:23:53.705Z,30.07
2018-05-12T13:24:53.773Z,30.08
2018-05-12T13:25:53.677Z,30.27
2018-05-12T13:26:53.689Z,30.15
2018-05-12T13:27:53.749Z,30.15
2018-05-12T13:28:53.695Z,29.81
2018-05-12T13:29:53.639Z,29.92
2018-05-12T13:30:53.711Z,29.84
2018-05-12T13:31:53.619Z,29.81
2018-05-12T13:32:53.607Z,29.78
2018-05-12T13:33:54.766Z,29.77
2018-05-12T13:34:53.585Z,29.81
2018-05-12T13:35:53.676Z,29.82
2018-05-12T13:36:53.580Z,29.86
2018-05-12T13:37:53.562Z,29.77
2018-05-12T13:38:53.585Z,29.79
2018-05-12T13:39:53.567Z,30.02
2018-05-12T13:40:53.615Z,29.92
2018-05-12T13:41:53.542Z,29.97
2018-05-12T13:42:53.530Z,29.87
2018-05-12T13:43:53.499Z,29.99
2018-05-12T13:44:53.578Z,29.72
2018-05-12T13:45:53.479Z,29.78
2018-05-12T13:46:53.557Z,29.57
2018-05-12T13:47:53.464Z,29.52
2018-05-12T13:48:53.571Z,29.44
2018-05-12T13:49:53.434Z,29.49
2018-05-12T13:50:54.506Z,29.55
2018-05-12T13:51:53.415Z,29.50
2018-05-12T13:52:53.499Z,29.50
2018-05-12T13:53:53.388Z,29.57
2018-05-12T13:54:53.470Z,29.44
2018-05-12T13:55:53.503Z,29.49
2018-05-12T13:56:53.519Z,29.44
2018-05-12T13:57:53.357Z,29.44
2018-05-12T13:58:53.436Z,29.13
2018-05-12T13:59:53.338Z,29.11
2018-05-12T14:00:53.347Z,29.04
2018-05-12T14:01:53.342Z,28.93
2018-05-12T14:02:53.365Z,28.80
2018-05-12T14:03:53.317Z,28.75
2018-05-12T14:04:53.376Z,28.78
2018-05-12T14:05:53.302Z,28.75
2018-05-12T14:06:53.290Z,28.78
2018-05-12T14:07:53.252Z,28.77
2018-05-12T14:08:53.301Z,28.77
2018-05-12T14:09:53.228Z,28.72
2018-05-12T14:10:53.316Z,28.62
2018-05-12T14:11:53.220Z,28.66
2018-05-12T14:12:53.226Z,28.53
2018-05-12T14:13:53.193Z,28.36
2018-05-12T14:14:53.244Z,28.22
2018-05-12T14:15:53.164Z,28.13
2018-05-12T14:16:53.255Z,28.25
2018-05-12T14:17:53.204Z,28.22
2018-05-12T14:18:53.172Z,28.21
2018-05-12T14:19:53.122Z,28.23
2018-05-12T14:20:53.181Z,28.22
2018-05-12T14:21:53.099Z,28.10
2018-05-12T14:22:53.195Z,28.14
2018-05-12T14:23:53.078Z,28.14
2018-05-12T14:24:53.106Z,28.07
2018-05-12T14:25:53.061Z,28.06
2018-05-12T14:26:53.120Z,28.04
2018-05-12T14:27:53.035Z,27.85
2018-05-12T14:28:53.137Z,27.84
2018-05-12T14:29:53.007Z,27.80
2018-05-12T14:30:54.070Z,27.76
2018-05-12T14:31:52.985Z,27.59
2018-05-12T14:32:53.062Z,27.66
2018-05-12T14:33:52.962Z,27.67
2018-05-12T14:34:52.973Z,27.84
2018-05-12T14:35:52.941Z,27.85
2018-05-12T14:36:52.988Z,27.82
2018-05-12T14:37:52.915Z,27.84
2018-05-12T14:38:53.003Z,27.88
2018-05-12T14:39:52.894Z,27.94
2018-05-12T14:40:52.913Z,27.92
2018-05-12T14:41:52.869Z,27.79
2018-05-12T14:42:52.954Z,27.73
2018-05-12T14:43:52.845Z,27.77
2018-05-12T14:44:52.942Z,27.79